createdAt,value
2019-04-20T00:00:48.845Z,12.40
2019-04-20T00:03:18.197Z,12.03
2019-04-20T00:05:49.028Z,11.93
2019-04-20T00:08:24.599Z,12.80
2019-04-20T00:11:00.225Z,12.63
2019-04-20T00:13:40.075Z,12.03
2019-04-20T00:15:57.868Z,11.77
2019-04-20T00:18:35.218Z,12.53
2019-04-20T00:21:20.761Z,12.82
2019-04-20T00:23:53.117Z,12.00
2019-04-20T00:26:57.824Z,12.83
2019-04-20T00:29:17.633Z,11.83
2019-04-20T00:31:45.855Z,12.10
2019-04-20T00:34:12.159Z,11.97
2019-04-20T00:36:37.324Z,11.73
2019-04-20T00:39:11.371Z,12.18
2019-04-20T00:41:48.987Z,11.80
2019-04-20T00:44:22.068Z,12.33
2019-04-20T00:47:00.782Z,11.93
2019-04-20T00:49:34.989Z,11.30
2019-04-20T00:52:18.705Z,12.05
2019-04-20T00:54:24.458Z,12.00
2019-04-20T00:57:07.892Z,12.17
2019-04-20T00:59:42.931Z,11.75
2019-04-20T01:02:17.796Z,11.27
2019-04-20T01:04:53.973Z,11.93
2019-04-20T01:07:20.789Z,12.43
2019-04-20T01:10:02.675Z,11.43
2019-04-20T01:12:36.592Z,11.43
2019-04-20T01:15:11.090Z,11.40
2019-04-20T01:17:41.546Z,11.22
2019-04-20T01:20:13.505Z,11.30
2019-04-20T01:22:52.263Z,12.00
2019-04-20T01:25:24.366Z,11.33
2019-04-20T01:28:07.770Z,11.35
2019-04-20T01:30:31.578Z,11.10
2019-04-20T01:33:12.773Z,11.90
2019-04-20T01:35:45.055Z,11.78
2019-04-20T01:38:16.679Z,11.50
2019-04-20T01:40:33.792Z,13.00
2019-04-20T01:43:05.662Z,11.40
2019-04-20T01:45:40.632Z,11.55
2019-04-20T01:48:13.090Z,12.37
2019-04-20T01:50:52.109Z,11.50
2019-04-20T01:53:32.398Z,12.23
2019-04-20T01:56:05.382Z,11.55
2019-04-20T01:58:50.604Z,12.58
2019-04-20T02:01:11.071Z,13.18
2019-04-20T02:03:40.308Z,11.90
2019-04-20T02:06:22.280Z,11.93
2019-04-20T02:08:58.403Z,12.65
2019-04-20T02:11:29.461Z,11.97
2019-04-20T02:14:03.243Z,11.70
2019-04-20T02:16:38.277Z,11.40
2019-04-20T02:19:21.648Z,11.30
2019-04-20T02:21:54.175Z,11.57
2019-04-20T02:24:10.972Z,12.43
2019-04-20T02:26:41.145Z,11.63
2019-04-20T02:29:36.059Z,11.47
2019-04-20T02:44:04.393Z,12.15
2019-04-20T02:48:07.745Z,11.60
2019-04-20T02:50:36.448Z,12.28
2019-04-20T02:53:15.661Z,11.18
2019-04-20T02:55:53.570Z,12.30
2019-04-20T02:58:18.346Z,12.30
2019-04-20T03:00:40.882Z,11.30
2019-04-20T03:03:03.257Z,10.88
2019-04-20T03:05:34.127Z,11.00
2019-04-20T03:08:13.669Z,11.75
2019-04-20T03:10:56.707Z,11.50
2019-04-20T03:13:27.080Z,11.93
2019-04-20T03:15:56.728Z,11.25
2019-04-20T03:18:26.562Z,11.48
2019-04-20T03:21:03.749Z,12.15
2019-04-20T03:23:38.548Z,11.65
2019-04-20T03:26:12.846Z,12.05
2019-04-20T03:28:53.807Z,11.83
2019-04-20T03:31:54.027Z,12.00
2019-04-20T03:34:48.942Z,11.73
2019-04-20T03:36:50.276Z,12.07
2019-04-20T03:39:10.046Z,11.43
2019-04-20T03:41:31.216Z,12.40
2019-04-20T03:44:04.496Z,13.10
2019-04-20T03:46:37.603Z,12.78
2019-04-20T03:49:21.367Z,11.83
2019-04-20T03:51:57.414Z,11.45
2019-04-20T03:54:25.162Z,13.03
2019-04-20T03:59:38.027Z,12.65
2019-04-20T04:02:33.180Z,11.35
2019-04-20T04:05:07.301Z,11.83
2019-04-20T04:07:28.320Z,12.00
2019-04-20T04:10:06.716Z,12.07
2019-04-20T04:13:01.457Z,12.15
2019-04-20T04:15:36.144Z,12.45
2019-04-20T04:18:13.811Z,11.57
2019-04-20T04:20:49.242Z,13.00
2019-04-20T04:23:32.654Z,12.45
2019-04-20T04:26:07.317Z,11.90
2019-04-20T04:28:31.201Z,12.23
2019-04-20T04:31:07.914Z,11.83
2019-04-20T04:36:10.148Z,12.23
2019-04-20T04:38:48.169Z,12.37
2019-04-20T04:43:49.846Z,11.83
2019-04-20T04:46:05.901Z,12.55
2019-04-20T04:48:41.052Z,12.00
2019-04-20T04:51:19.758Z,12.13
2019-04-20T04:53:53.006Z,11.70
2019-04-20T04:56:18.879Z,11.95
2019-04-20T04:58:49.557Z,12.00
2019-04-20T05:01:25.995Z,11.55
2019-04-20T05:04:28.940Z,11.30
2019-04-20T05:06:41.436Z,11.88
2019-04-20T05:09:03.288Z,12.05
2019-04-20T05:11:32.051Z,11.35
2019-04-20T05:14:08.329Z,12.53
2019-04-20T05:16:50.013Z,12.00
2019-04-20T05:19:29.864Z,11.40
2019-04-20T05:24:33.890Z,11.33
2019-04-20T05:27:30.075Z,10.72
2019-04-20T05:29:42.788Z,11.60
2019-04-20T05:32:20.015Z,11.85
2019-04-20T05:35:12.306Z,11.40
2019-04-20T05:37:41.305Z,11.85
2019-04-20T05:40:20.500Z,11.93
2019-04-20T05:42:48.831Z,12.00
2019-04-20T05:45:16.254Z,11.75
2019-04-20T05:47:48.423Z,12.05
2019-04-20T05:50:28.912Z,11.55
2019-04-20T05:53:04.806Z,12.00
2019-04-20T05:55:37.456Z,12.70
2019-04-20T05:58:08.920Z,12.33
2019-04-20T06:00:40.477Z,12.50
2019-04-20T06:03:06.052Z,11.93
2019-04-20T06:05:53.713Z,12.30
2019-04-20T06:08:28.347Z,12.33
2019-04-20T06:10:50.841Z,12.10
2019-04-20T06:13:22.856Z,11.70
2019-04-20T06:16:12.918Z,11.77
2019-04-20T06:18:50.787Z,11.70
2019-04-20T06:21:35.147Z,11.70
2019-04-20T06:24:11.371Z,12.37
2019-04-20T06:26:48.831Z,12.10
2019-04-20T06:29:09.422Z,11.50
2019-04-20T06:31:45.435Z,12.60
2019-04-20T06:39:46.524Z,11.27
2019-04-20T06:44:35.024Z,11.80
2019-04-20T06:47:27.697Z,12.77
2019-04-20T06:49:39.331Z,12.37
2019-04-20T06:52:26.187Z,12.67
2019-04-20T06:55:05.155Z,11.80
2019-04-20T06:57:45.381Z,12.57
2019-04-20T07:00:15.530Z,12.30
2019-04-20T07:08:01.421Z,12.10
2019-04-20T07:10:34.423Z,12.40
2019-04-20T07:12:55.373Z,12.87
2019-04-20T07:15:46.531Z,12.67
2019-04-20T07:18:23.990Z,12.70
2019-04-20T07:21:15.536Z,12.20
2019-04-20T07:23:37.507Z,11.93
2019-04-20T07:26:09.334Z,11.77
2019-04-20T07:28:41.120Z,12.80
2019-04-20T07:31:09.330Z,11.73
2019-04-20T07:36:19.927Z,12.17
2019-04-20T07:38:46.573Z,11.80
2019-04-20T07:41:29.350Z,12.23
2019-04-20T07:44:04.467Z,12.30
2019-04-20T07:46:41.983Z,12.07
2019-04-20T07:49:01.356Z,12.33
2019-04-20T07:51:18.305Z,11.50
2019-04-20T07:54:10.639Z,11.90
2019-04-20T07:56:37.533Z,12.33
2019-04-20T07:58:54.814Z,13.30
2019-04-20T08:02:00.598Z,12.77
2019-04-20T08:04:28.833Z,12.63
2019-04-20T08:06:52.812Z,12.57
2019-04-20T08:09:28.969Z,11.93
2019-04-20T08:12:18.255Z,13.17
2019-04-20T08:14:59.269Z,12.63
2019-04-20T08:17:47.984Z,12.77
2019-04-20T08:19:54.948Z,12.60
2019-04-20T08:22:27.026Z,12.67
2019-04-20T08:24:59.298Z,11.53
2019-04-20T08:27:14.442Z,11.87
2019-04-20T08:30:01.921Z,11.90
2019-04-20T08:32:41.690Z,12.80
2019-04-20T08:35:26.869Z,12.70
2019-04-20T08:38:22.162Z,11.90
2019-04-20T08:40:30.015Z,11.23
2019-04-20T08:43:14.774Z,12.30
2019-04-20T08:45:35.034Z,11.93
2019-04-20T08:48:11.106Z,12.70
2019-04-20T08:50:34.857Z,12.03
2019-04-20T08:55:41.380Z,11.87
2019-04-20T08:57:57.396Z,12.13
2019-04-20T09:00:33.147Z,12.50
2019-04-20T09:03:12.132Z,11.87
2019-04-20T09:05:45.581Z,12.40
2019-04-20T09:08:13.518Z,12.90
2019-04-20T09:10:56.522Z,12.67
2019-04-20T09:13:21.043Z,12.90
2019-04-20T09:15:44.765Z,13.17
2019-04-20T09:18:28.343Z,13.10
2019-04-20T09:20:58.929Z,13.80
2019-04-20T09:23:36.358Z,13.50
2019-04-20T09:26:16.068Z,13.70
2019-04-20T09:28:59.126Z,13.23
2019-04-20T09:31:35.456Z,14.70
2019-04-20T09:34:11.475Z,14.00
2019-04-20T09:36:49.829Z,13.47
2019-04-20T09:39:24.625Z,14.07
2019-04-20T09:42:06.231Z,13.97
2019-04-20T09:44:42.685Z,13.83
2019-04-20T09:47:10.557Z,13.23
2019-04-20T09:49:54.085Z,14.50
2019-04-20T09:52:29.038Z,13.77
2019-04-20T09:55:04.535Z,14.23
2019-04-20T09:57:38.057Z,13.03
2019-04-20T10:00:07.206Z,13.90
2019-04-20T10:02:30.911Z,14.10
2019-04-20T10:04:57.991Z,12.93
2019-04-20T10:07:33.713Z,13.57
2019-04-20T10:10:17.890Z,13.70
2019-04-20T10:12:39.733Z,13.83
2019-04-20T10:15:17.692Z,14.10
2019-04-20T10:17:43.885Z,14.97
2019-04-20T10:20:22.388Z,13.03
2019-04-20T10:22:48.769Z,13.70
2019-04-20T10:25:20.538Z,12.90
2019-04-20T10:27:51.635Z,13.20
2019-04-20T10:30:23.032Z,13.27
2019-04-20T10:32:55.604Z,13.63
2019-04-20T10:35:27.614Z,13.20
2019-04-20T10:38:07.503Z,13.30
2019-04-20T10:40:50.722Z,13.50
2019-04-20T10:43:12.195Z,13.20
2019-04-20T10:45:43.010Z,13.60
2019-04-20T10:48:15.048Z,13.13
2019-04-20T10:50:47.152Z,13.60
2019-04-20T10:53:19.585Z,14.27
2019-04-20T10:55:51.535Z,13.97
2019-04-20T10:58:25.308Z,13.40
2019-04-20T11:00:57.706Z,14.00
2019-04-20T11:03:28.914Z,13.60
2019-04-20T11:06:00.706Z,15.13
2019-04-20T11:08:32.875Z,13.53
2019-04-20T11:11:12.688Z,13.40
2019-04-20T11:13:37.497Z,13.43
2019-04-20T11:16:08.586Z,12.97
2019-04-20T11:18:39.808Z,12.83
2019-04-20T11:21:11.418Z,12.83
2019-04-20T11:23:42.577Z,12.63
2019-04-20T11:26:14.088Z,13.13
2019-04-20T11:28:46.207Z,13.00
2019-04-20T11:31:17.181Z,12.80
2019-04-20T11:33:48.089Z,14.13
2019-04-20T11:36:19.227Z,13.27
2019-04-20T11:38:51.175Z,13.53
2019-04-20T11:41:26.055Z,12.37
2019-04-20T11:43:55.814Z,12.97
2019-04-20T11:46:26.979Z,13.00
2019-04-20T11:48:57.788Z,12.83
2019-04-20T11:51:29.760Z,12.80
2019-04-20T11:54:00.682Z,12.20
2019-04-20T11:56:34.827Z,12.73
2019-04-20T11:59:05.317Z,12.40
2019-04-20T12:01:47.622Z,12.50
2019-04-20T12:04:27.151Z,13.20
2019-04-20T12:06:48.709Z,12.53
2019-04-20T12:09:19.664Z,12.20
2019-04-20T12:12:02.131Z,12.53
2019-04-20T12:14:23.124Z,11.97
2019-04-20T12:16:53.900Z,12.57
2019-04-20T12:19:25.083Z,12.20
2019-04-20T12:21:55.915Z,12.20
2019-04-20T12:24:26.636Z,12.80
2019-04-20T12:26:58.626Z,12.87
2019-04-20T12:29:29.956Z,14.53
2019-04-20T12:32:02.252Z,13.37
2019-04-20T12:34:33.544Z,12.87
2019-04-20T12:37:05.012Z,13.50
2019-04-20T12:39:37.269Z,13.43
2019-04-20T12:42:09.536Z,13.43
2019-04-20T12:44:41.789Z,12.50
2019-04-20T12:47:14.025Z,12.97
2019-04-20T12:49:45.482Z,12.57
2019-04-20T12:52:16.739Z,12.47
2019-04-20T12:54:47.987Z,12.63
2019-04-20T12:57:20.596Z,12.67
2019-04-20T12:59:52.413Z,12.57
2019-04-20T13:02:25.043Z,12.10
2019-04-20T13:04:57.381Z,12.47
2019-04-20T13:07:31.596Z,13.30
2019-04-20T13:10:03.555Z,12.30
2019-04-20T13:12:36.413Z,12.80
2019-04-20T13:15:28.658Z,12.20
2019-04-20T13:18:01.243Z,12.93
2019-04-20T13:20:32.154Z,13.00
2019-04-20T13:23:06.195Z,12.03
2019-04-20T13:25:37.165Z,12.70
2019-04-20T13:28:07.942Z,13.10
2019-04-20T13:30:39.739Z,13.70
2019-04-20T13:33:11.858Z,12.70
2019-04-20T13:35:43.885Z,12.97
2019-04-20T13:38:16.135Z,13.50
2019-04-20T13:40:48.130Z,13.80
2019-04-20T13:43:19.701Z,12.70
2019-04-20T13:45:50.988Z,13.40
2019-04-20T13:48:22.023Z,12.80
2019-04-20T13:50:53.971Z,12.97
2019-04-20T13:53:25.326Z,12.90
2019-04-20T13:55:56.152Z,12.93
2019-04-20T13:58:47.761Z,13.00
2019-04-20T14:01:26.531Z,13.20
2019-04-20T14:04:14.814Z,13.27
2019-04-20T14:06:46.054Z,12.63
2019-04-20T14:09:17.241Z,13.33
2019-04-20T14:11:49.398Z,13.20
2019-04-20T14:14:21.352Z,13.10
2019-04-20T14:16:52.965Z,12.37
2019-04-20T14:19:25.118Z,12.47
2019-04-20T14:21:56.487Z,13.33
2019-04-20T14:24:27.319Z,12.57
2019-04-20T14:26:59.009Z,11.73
2019-04-20T14:29:30.678Z,12.90
2019-04-20T14:32:03.691Z,13.30
2019-04-20T14:34:35.225Z,13.20
2019-04-20T14:37:06.897Z,13.37
2019-04-20T14:39:38.355Z,12.73
2019-04-20T14:42:09.973Z,12.67
2019-04-20T14:44:41.911Z,13.00
2019-04-20T14:47:13.895Z,12.90
2019-04-20T14:49:44.786Z,12.40
2019-04-20T14:52:15.588Z,12.77
2019-04-20T14:54:47.603Z,13.60
2019-04-20T14:57:19.309Z,13.40
2019-04-20T14:59:52.144Z,13.00
2019-04-20T15:02:24.313Z,12.83
2019-04-20T15:04:55.193Z,13.00
2019-04-20T15:07:26.659Z,12.40
2019-04-20T15:09:57.563Z,12.70
2019-04-20T15:12:38.847Z,13.70
2019-04-20T15:15:01.018Z,13.33
2019-04-20T15:17:33.680Z,12.87
2019-04-20T15:20:07.527Z,12.50
2019-04-20T15:22:43.423Z,12.40
2019-04-20T15:25:14.210Z,12.60
2019-04-20T15:27:46.298Z,12.40
2019-04-20T15:30:18.360Z,11.60
2019-04-20T15:32:52.579Z,10.93
2019-04-20T15:35:24.693Z,11.37
2019-04-20T15:37:55.865Z,11.47
2019-04-20T15:40:28.980Z,10.80
2019-04-20T15:43:08.228Z,10.77
2019-04-20T15:45:33.627Z,11.40
2019-04-20T15:48:05.881Z,11.00
2019-04-20T15:50:38.155Z,10.67
2019-04-20T15:53:09.007Z,10.97
2019-04-20T15:55:43.054Z,10.43
2019-04-20T15:58:12.557Z,10.30
2019-04-20T16:00:44.710Z,10.67
2019-04-20T16:03:21.367Z,10.50
2019-04-20T16:05:56.526Z,11.23
2019-04-20T16:08:36.659Z,11.27
2019-04-20T16:11:09.089Z,10.67
2019-04-20T16:13:44.600Z,11.23
2019-04-20T16:16:14.210Z,10.80
2019-04-20T16:18:46.559Z,10.43
2019-04-20T16:21:22.125Z,10.50
2019-04-20T16:23:52.598Z,10.10
2019-04-20T16:26:29.494Z,9.97
2019-04-20T16:29:01.698Z,10.00
2019-04-20T16:31:32.823Z,10.03
2019-04-20T16:34:03.573Z,9.90
2019-04-20T16:36:34.694Z,9.83
2019-04-20T16:39:06.107Z,9.83
2019-04-20T16:41:38.141Z,10.27
2019-04-20T16:44:09.370Z,10.10
2019-04-20T16:46:40.442Z,9.87
2019-04-20T16:49:12.776Z,9.83
2019-04-20T16:51:44.998Z,10.47
2019-04-20T16:54:16.002Z,9.70
2019-04-20T16:56:46.781Z,9.20
2019-04-20T16:59:19.291Z,10.37
2019-04-20T17:01:50.612Z,10.77
2019-04-20T17:04:23.041Z,10.47
2019-04-20T17:07:08.141Z,10.03
2019-04-20T17:09:39.841Z,10.33
2019-04-20T17:12:12.073Z,10.47
2019-04-20T17:14:43.308Z,10.70
2019-04-20T17:17:15.707Z,10.10
2019-04-20T17:19:46.553Z,9.53
2019-04-20T17:22:17.446Z,9.30
2019-04-20T17:24:49.444Z,10.30
2019-04-20T17:27:39.054Z,9.80
2019-04-20T17:30:26.717Z,8.80
2019-04-20T17:33:16.007Z,9.30
2019-04-20T17:35:57.323Z,9.83
2019-04-20T17:38:20.589Z,9.60
2019-04-20T17:41:11.329Z,10.00
2019-04-20T17:43:31.427Z,10.03
2019-04-20T17:46:04.679Z,9.97
2019-04-20T17:48:39.960Z,9.33
2019-04-20T17:51:23.521Z,10.17
2019-04-20T17:53:50.251Z,10.27
2019-04-20T17:56:12.856Z,9.57
2019-04-20T17:58:43.957Z,9.57
2019-04-20T18:01:32.968Z,9.20
2019-04-20T18:04:27.094Z,8.93
2019-04-20T18:06:46.337Z,9.50
2019-04-20T18:09:25.558Z,8.90
2019-04-20T18:11:46.416Z,8.90
2019-04-20T18:14:28.573Z,8.90
2019-04-20T18:17:03.250Z,9.17
2019-04-20T18:19:24.190Z,8.33
2019-04-20T18:21:54.009Z,8.83
2019-04-20T18:24:50.733Z,9.50
2019-04-20T18:27:23.237Z,9.13
2019-04-20T18:29:49.115Z,9.10
2019-04-20T18:32:07.633Z,9.17
2019-04-20T18:34:53.024Z,8.60
2019-04-20T18:37:21.401Z,8.73
2019-04-20T18:39:57.396Z,8.47
2019-04-20T18:42:32.413Z,8.33
2019-04-20T18:45:18.356Z,8.47
2019-04-20T18:47:49.670Z,8.20
2019-04-20T18:50:16.515Z,9.17
2019-04-20T18:52:40.037Z,9.00
2019-04-20T18:55:16.263Z,8.60
2019-04-20T18:57:44.671Z,8.07
2019-04-20T19:00:24.594Z,8.43
2019-04-20T19:02:54.422Z,8.60
2019-04-20T19:05:24.046Z,8.43
2019-04-20T19:08:00.935Z,8.80
2019-04-20T19:10:32.891Z,8.50
2019-04-20T19:13:08.085Z,9.47
2019-04-20T19:15:55.999Z,9.47
2019-04-20T19:18:49.492Z,9.10
2019-04-20T19:21:09.092Z,9.13
2019-04-20T19:23:48.543Z,9.53
2019-04-20T19:26:18.258Z,9.27
2019-04-20T19:28:52.743Z,8.63
2019-04-20T19:31:33.711Z,8.60
2019-04-20T19:34:13.871Z,9.10
2019-04-20T19:36:34.169Z,9.30
2019-04-20T19:39:15.168Z,9.67
2019-04-20T19:41:41.809Z,9.90
2019-04-20T19:44:13.180Z,9.80
2019-04-20T19:46:55.094Z,10.23
2019-04-20T19:49:22.955Z,9.13
2019-04-20T19:52:13.355Z,9.33
2019-04-20T19:54:36.420Z,9.23
2019-04-20T19:57:02.479Z,8.93
2019-04-20T19:59:28.897Z,8.90
2019-04-20T20:01:51.723Z,8.83
2019-04-20T20:04:23.751Z,9.80
2019-04-20T20:07:02.040Z,8.80
2019-04-20T20:09:28.072Z,9.20
2019-04-20T20:12:03.764Z,9.80
2019-04-20T20:14:36.438Z,9.27
2019-04-20T20:17:27.341Z,8.90
2019-04-20T20:20:04.032Z,9.27
2019-04-20T20:22:21.674Z,9.00
2019-04-20T20:24:43.115Z,9.13
2019-04-20T20:27:24.023Z,8.73
2019-04-20T20:30:02.160Z,9.37
2019-04-20T20:32:38.897Z,8.87
2019-04-20T20:35:04.416Z,9.60
2019-04-20T20:37:37.643Z,9.17
2019-04-20T20:40:13.560Z,9.00
2019-04-20T20:42:45.789Z,9.50
2019-04-20T20:45:18.510Z,9.87
2019-04-20T20:47:55.029Z,9.33
2019-04-20T20:50:42.938Z,10.07
2019-04-20T20:52:54.720Z,9.47
2019-04-20T20:55:25.826Z,10.27
2019-04-20T20:58:01.332Z,10.43
2019-04-20T21:00:35.832Z,9.97
2019-04-20T21:03:01.372Z,10.17
2019-04-20T21:05:27.389Z,10.03
2019-04-20T21:07:59.573Z,10.30
2019-04-20T21:10:35.655Z,10.27
2019-04-20T21:13:07.320Z,9.13
2019-04-20T21:15:38.227Z,10.17
2019-04-20T21:18:34.881Z,9.83
2019-04-20T21:21:00.999Z,9.73
2019-04-20T21:23:28.436Z,10.23
2019-04-20T21:26:07.119Z,10.53
2019-04-20T21:28:40.086Z,10.60
2019-04-20T21:31:16.231Z,9.73
2019-04-20T21:33:44.810Z,9.73
2019-04-20T21:36:19.042Z,10.60
2019-04-20T21:38:49.921Z,9.77
2019-04-20T21:41:23.923Z,10.40
2019-04-20T21:43:53.983Z,10.77
2019-04-20T21:46:25.039Z,11.00
2019-04-20T21:49:09.716Z,10.50
2019-04-20T21:51:40.867Z,10.20
2019-04-20T21:54:04.950Z,10.23
2019-04-20T21:56:39.175Z,10.50
2019-04-20T21:59:18.903Z,10.70
2019-04-20T22:01:53.188Z,10.00
2019-04-20T22:04:14.447Z,9.80
2019-04-20T22:06:46.456Z,10.00
2019-04-20T22:09:18.232Z,10.47
2019-04-20T22:11:49.753Z,9.80
2019-04-20T22:14:24.027Z,10.97
2019-04-20T22:16:56.748Z,10.27
2019-04-20T22:19:36.664Z,10.37
2019-04-20T22:22:05.581Z,10.30
2019-04-20T22:24:44.988Z,10.63
2019-04-20T22:27:13.070Z,9.80
2019-04-20T22:29:38.261Z,10.90
2019-04-20T22:32:13.233Z,10.03
2019-04-20T22:34:47.630Z,10.60
2019-04-20T22:37:21.252Z,9.60
2019-04-20T22:39:53.941Z,9.80
2019-04-20T22:42:23.380Z,10.40
2019-04-20T22:45:01.283Z,9.90
2019-04-20T22:47:31.877Z,10.73
2019-04-20T22:50:31.866Z,10.87
2019-04-20T22:52:47.760Z,10.70
2019-04-20T22:55:28.243Z,10.50
2019-04-20T22:57:48.539Z,10.70
2019-04-20T23:00:22.265Z,10.03
2019-04-20T23:02:47.008Z,9.33
2019-04-20T23:05:18.576Z,9.53
2019-04-20T23:07:50.588Z,10.40
2019-04-20T23:10:29.024Z,9.90
2019-04-20T23:12:57.872Z,10.83
2019-04-20T23:15:28.042Z,9.97
2019-04-20T23:18:00.066Z,10.37
2019-04-20T23:20:35.623Z,10.20
2019-04-20T23:23:04.989Z,9.63
2019-04-20T23:25:36.538Z,10.00
2019-04-20T23:28:12.341Z,10.37
2019-04-20T23:30:42.054Z,10.40
2019-04-20T23:33:14.021Z,10.20
2019-04-20T23:35:49.905Z,11.03
2019-04-20T23:38:21.162Z,10.80
2019-04-20T23:40:51.999Z,11.00
2019-04-20T23:43:31.558Z,11.00
2019-04-20T23:46:16.974Z,10.33
2019-04-20T23:48:44.761Z,9.97
2019-04-20T23:51:37.903Z,10.13
2019-04-20T23:53:59.604Z,10.33
2019-04-20T23:56:22.500Z,11.23
2019-04-20T23:58:56.534Z,10.47
